Time;durP1;ratioP1;P1;durP2;ratioP2;P2;SDS_P1;SDS_P2;PMS_P1;PMS_P2;Temp;Humidity;BMP_temperature;BMP_pressure;BME280_temperature;BME280_humidity;BME280_pressure;Samples;Min_cycle;Max_cycle;Signal;HPM_P1;HPM_P2
2023/06/16 00:00:53;;;;;;;10.97;9.30;;;;;;;;;;5004247;28;20523;-65
2023/06/16 00:03:21;;;;;;;13.30;8.93;;;;;;;;;;5009140;28;20622;-65
2023/06/16 00:06:14;;;;;;;9.60;8.10;;;;;;;;;;5009210;28;20536;-65
2023/06/16 00:08:42;;;;;;;10.27;8.63;;;;;;;;;;5009628;28;20220;-66
2023/06/16 00:11:44;;;;;;;8.83;7.63;;;;;;;;;;5009107;28;20178;-65
2023/06/16 00:14:11;;;;;;;8.77;7.87;;;;;;;;;;5008867;28;20184;-65
2023/06/16 00:16:57;;;;;;;10.83;7.70;;;;;;;;;;5008302;28;20235;-65
2023/06/16 00:19:27;;;;;;;11.43;8.20;;;;;;;;;;5008957;28;20191;-66
2023/06/16 00:21:53;;;;;;;8.93;8.00;;;;;;;;;;5008739;28;20250;-66
2023/06/16 00:24:20;;;;;;;9.10;8.20;;;;;;;;;;4991153;28;20211;-65
2023/06/16 00:26:47;;;;;;;10.47;8.07;;;;;;;;;;5008713;28;20262;-66
2023/06/16 00:29:14;;;;;;;10.93;9.00;;;;;;;;;;4991313;28;20203;-66
2023/06/16 00:31:41;;;;;;;10.00;7.63;;;;;;;;;;5007951;28;20196;-66
2023/06/16 00:34:08;;;;;;;8.17;7.37;;;;;;;;;;4990849;28;20220;-65
2023/06/16 00:36:35;;;;;;;8.57;7.60;;;;;;;;;;5008498;28;20721;-65
2023/06/16 00:39:02;;;;;;;9.10;8.20;;;;;;;;;;5008773;28;20449;-65
2023/06/16 00:41:30;;;;;;;8.73;7.63;;;;;;;;;;5008536;28;20254;-66
2023/06/16 00:43:58;;;;;;;9.70;7.97;;;;;;;;;;4991062;28;20656;-66
2023/06/16 00:46:28;;;;;;;8.33;7.53;;;;;;;;;;5007703;28;20231;-66
2023/06/16 00:48:55;;;;;;;9.40;7.67;;;;;;;;;;4991189;28;20199;-66
2023/06/16 00:51:25;;;;;;;8.80;7.90;;;;;;;;;;5008478;28;20673;-66
2023/06/16 00:53:55;;;;;;;9.23;7.63;;;;;;;;;;4971657;28;20204;-65
2023/06/16 00:56:23;;;;;;;8.43;7.00;;;;;;;;;;4988799;28;20623;-66
2023/06/16 00:58:51;;;;;;;7.43;6.73;;;;;;;;;;4971800;28;20528;-66
2023/06/16 01:01:18;;;;;;;9.47;7.20;;;;;;;;;;4989121;28;20534;-65
2023/06/16 01:03:46;;;;;;;7.47;6.63;;;;;;;;;;4997824;28;20969;-65
2023/06/16 01:06:17;;;;;;;8.00;6.97;;;;;;;;;;4990511;28;20572;-65
2023/06/16 01:08:48;;;;;;;10.83;8.77;;;;;;;;;;4990958;28;21040;-66
2023/06/16 01:11:37;;;;;;;9.67;8.67;;;;;;;;;;4993694;28;20169;-66
2023/06/16 01:14:07;;;;;;;8.97;8.07;;;;;;;;;;5008336;28;20673;-66
2023/06/16 01:16:53;;;;;;;8.27;7.47;;;;;;;;;;4980651;28;20228;-66
2023/06/16 01:19:33;;;;;;;9.90;8.20;;;;;;;;;;4970945;28;20200;-66
2023/06/16 01:22:10;;;;;;;12.10;9.70;;;;;;;;;;4956291;28;20299;-65
2023/06/16 01:24:37;;;;;;;10.63;9.27;;;;;;;;;;4988885;28;20311;-66
2023/06/16 01:27:04;;;;;;;11.83;9.60;;;;;;;;;;4972555;28;20192;-65
2023/06/16 01:29:36;;;;;;;11.60;9.07;;;;;;;;;;4975117;28;20189;-66
2023/06/16 01:32:03;;;;;;;29.83;10.77;;;;;;;;;;4992358;28;20195;-66
2023/06/16 01:34:32;;;;;;;33.30;11.20;;;;;;;;;;4974698;28;20201;-66
2023/06/16 01:36:59;;;;;;;28.70;10.63;;;;;;;;;;4957718;28;20196;-67
2023/06/16 01:39:26;;;;;;;13.40;9.53;;;;;;;;;;4992316;28;20192;-66
2023/06/16 01:41:52;;;;;;;12.07;9.57;;;;;;;;;;4992217;28;20189;-65
2023/06/16 02:16:19;;;;;;;12.17;9.83;;;;;;;;;;4811460;28;20234;-65
2023/06/16 02:19:03;;;;;;;12.50;10.50;;;;;;;;;;4993936;28;20644;-65
2023/06/16 02:21:30;;;;;;;14.00;10.93;;;;;;;;;;4993321;28;20366;-65
2023/06/16 02:23:56;;;;;;;13.07;11.23;;;;;;;;;;4993773;28;20196;-65
2023/06/16 02:26:24;;;;;;;11.80;10.60;;;;;;;;;;5010634;28;20219;-65
2023/06/16 02:28:51;;;;;;;12.27;10.73;;;;;;;;;;5011178;28;20685;-65
2023/06/16 02:31:18;;;;;;;12.47;10.53;;;;;;;;;;4993346;28;20188;-66
2023/06/16 02:33:45;;;;;;;12.40;11.00;;;;;;;;;;4993716;28;20203;-66
2023/06/16 02:36:13;;;;;;;12.47;10.23;;;;;;;;;;4993261;28;20281;-66
2023/06/16 02:38:40;;;;;;;10.73;9.63;;;;;;;;;;5010700;28;20211;-66
2023/06/16 02:41:07;;;;;;;12.83;10.43;;;;;;;;;;4993351;28;20204;-66
2023/06/16 02:43:33;;;;;;;11.93;10.10;;;;;;;;;;4992622;28;20206;-66
2023/06/16 02:46:00;;;;;;;12.30;10.33;;;;;;;;;;4993436;28;20208;-64
2023/06/16 02:48:27;;;;;;;12.23;10.87;;;;;;;;;;5010257;28;20299;-65
2023/06/16 02:50:55;;;;;;;13.83;11.10;;;;;;;;;;4992972;28;20290;-66
2023/06/16 02:53:24;;;;;;;16.00;11.87;;;;;;;;;;4977186;28;20243;-65
2023/06/16 02:55:53;;;;;;;17.77;12.27;;;;;;;;;;4973635;28;20189;-65
2023/06/16 02:58:22;;;;;;;16.20;12.00;;;;;;;;;;4989643;28;20204;-65
2023/06/16 03:00:49;;;;;;;14.23;12.73;;;;;;;;;;4983802;28;20196;-66
2023/06/16 03:03:38;;;;;;;14.47;12.67;;;;;;;;;;4992694;28;20208;-66
2023/06/16 03:06:29;;;;;;;15.03;11.73;;;;;;;;;;4992593;28;20303;-66
2023/06/16 03:08:57;;;;;;;15.53;12.90;;;;;;;;;;4992817;28;20196;-66
2023/06/16 03:11:27;;;;;;;14.47;12.97;;;;;;;;;;4992731;28;20258;-66
2023/06/16 03:13:55;;;;;;;15.33;12.47;;;;;;;;;;4992572;28;20237;-65
2023/06/16 03:16:26;;;;;;;14.63;12.67;;;;;;;;;;4987947;28;20825;-65
2023/06/16 03:19:11;;;;;;;16.37;13.47;;;;;;;;;;4971016;28;20201;-66
2023/06/16 03:21:39;;;;;;;14.27;12.43;;;;;;;;;;4953625;28;20215;-65
2023/06/16 03:24:33;;;;;;;15.87;12.27;;;;;;;;;;4953629;28;20177;-66
2023/06/16 03:27:03;;;;;;;16.73;13.80;;;;;;;;;;4953665;28;20205;-66
2023/06/16 03:29:47;;;;;;;15.33;13.70;;;;;;;;;;4954206;28;20194;-65
2023/06/16 03:32:16;;;;;;;16.23;14.37;;;;;;;;;;4972383;28;20197;-65
2023/06/16 03:34:44;;;;;;;17.60;15.03;;;;;;;;;;4956997;28;20196;-65
2023/06/16 03:37:11;;;;;;;16.93;14.53;;;;;;;;;;4972152;28;20688;-66
2023/06/16 03:39:39;;;;;;;18.93;14.33;;;;;;;;;;4973046;28;20193;-66
2023/06/16 03:42:06;;;;;;;21.50;18.00;;;;;;;;;;4972453;28;20301;-65
2023/06/16 03:44:33;;;;;;;19.43;16.40;;;;;;;;;;4990355;28;20212;-65
2023/06/16 03:46:59;;;;;;;22.83;18.30;;;;;;;;;;4972786;28;20205;-65
2023/06/16 03:49:43;;;;;;;18.90;16.57;;;;;;;;;;4971012;28;20541;-65
2023/06/16 03:52:10;;;;;;;21.00;18.27;;;;;;;;;;4965547;28;20192;-65
2023/06/16 03:54:54;;;;;;;20.97;18.67;;;;;;;;;;4969260;28;20261;-65
2023/06/16 03:57:21;;;;;;;20.43;17.53;;;;;;;;;;4953021;28;20197;-65
2023/06/16 04:00:09;;;;;;;20.13;17.37;;;;;;;;;;4970280;28;20177;-65
2023/06/16 04:02:50;;;;;;;20.47;16.50;;;;;;;;;;4953297;28;20198;-65
2023/06/16 04:05:24;;;;;;;19.87;16.57;;;;;;;;;;4965014;28;20769;-65
2023/06/16 04:07:54;;;;;;;23.53;17.20;;;;;;;;;;4972345;28;20230;-65
2023/06/16 04:10:21;;;;;;;16.93;15.10;;;;;;;;;;4989781;28;20271;-65
2023/06/16 04:12:47;;;;;;;15.33;11.27;;;;;;;;;;4989460;28;20200;-65
2023/06/16 04:15:15;;;;;;;13.23;10.80;;;;;;;;;;4972253;28;20204;-65
2023/06/16 04:17:42;;;;;;;15.77;11.97;;;;;;;;;;5004744;28;20331;-65
2023/06/16 04:20:11;;;;;;;17.17;13.80;;;;;;;;;;4991447;28;20231;-65
2023/06/16 04:22:39;;;;;;;17.07;13.97;;;;;;;;;;4990863;28;20200;-65
2023/06/16 04:25:23;;;;;;;20.27;16.10;;;;;;;;;;4991291;28;20215;-65
2023/06/16 04:27:51;;;;;;;19.53;16.40;;;;;;;;;;4991193;28;20211;-65
2023/06/16 04:30:36;;;;;;;21.27;17.77;;;;;;;;;;5008101;28;20175;-66
2023/06/16 04:33:05;;;;;;;20.80;17.40;;;;;;;;;;4972828;28;20202;-66
2023/06/16 04:35:34;;;;;;;22.00;17.80;;;;;;;;;;4989715;28;20198;-66
2023/06/16 04:38:03;;;;;;;23.73;18.23;;;;;;;;;;5005594;28;20681;-66
2023/06/16 04:40:31;;;;;;;20.80;17.90;;;;;;;;;;4986884;28;20196;-65
2023/06/16 04:42:58;;;;;;;22.60;18.43;;;;;;;;;;5003203;28;20295;-64
2023/06/16 04:45:26;;;;;;;24.50;19.50;;;;;;;;;;4968505;28;20235;-65
2023/06/16 04:47:53;;;;;;;22.37;18.33;;;;;;;;;;4984659;28;20235;-65
2023/06/16 04:50:22;;;;;;;19.93;17.67;;;;;;;;;;4985037;28;20199;-65
2023/06/16 04:52:49;;;;;;;22.80;18.40;;;;;;;;;;4994394;28;20660;-64
2023/06/16 04:55:17;;;;;;;21.07;16.37;;;;;;;;;;4988090;28;20210;-64
2023/06/16 04:58:01;;;;;;;20.33;16.50;;;;;;;;;;4990003;28;20200;-64
2023/06/16 05:00:30;;;;;;;20.03;16.40;;;;;;;;;;4989316;28;20196;-66
2023/06/16 05:02:57;;;;;;;21.20;16.10;;;;;;;;;;5005285;28;20589;-64
2023/06/16 05:05:25;;;;;;;23.63;17.17;;;;;;;;;;4988362;28;20243;-64
2023/06/16 05:07:52;;;;;;;21.17;17.43;;;;;;;;;;4984461;28;20209;-66
2023/06/16 05:10:19;;;;;;;21.97;17.57;;;;;;;;;;5003405;28;20185;-65
2023/06/16 05:12:46;;;;;;;24.40;19.03;;;;;;;;;;5004058;28;20252;-65
2023/06/16 05:15:13;;;;;;;25.07;20.60;;;;;;;;;;5003046;28;20196;-64
2023/06/16 05:17:40;;;;;;;24.93;19.70;;;;;;;;;;4992460;28;20246;-65
2023/06/16 05:20:08;;;;;;;25.50;18.67;;;;;;;;;;4993331;28;20850;-65
2023/06/16 05:22:38;;;;;;;22.20;17.57;;;;;;;;;;4994022;28;20618;-64
2023/06/16 05:25:28;;;;;;;26.13;18.20;;;;;;;;;;4990863;28;20251;-65
2023/06/16 05:27:55;;;;;;;21.97;17.60;;;;;;;;;;4977514;28;20243;-64
2023/06/16 05:30:22;;;;;;;22.47;17.60;;;;;;;;;;4980870;28;20644;-64
2023/06/16 05:32:49;;;;;;;24.20;19.07;;;;;;;;;;4985182;28;20247;-64
2023/06/16 05:35:16;;;;;;;24.53;19.17;;;;;;;;;;4990765;28;20211;-64
2023/06/16 05:38:00;;;;;;;23.77;19.20;;;;;;;;;;4974903;28;20649;-64
2023/06/16 05:40:27;;;;;;;23.53;17.97;;;;;;;;;;4974976;28;20192;-64
2023/06/16 05:42:54;;;;;;;23.87;19.43;;;;;;;;;;4975009;28;20696;-65
2023/06/16 05:45:21;;;;;;;22.47;18.30;;;;;;;;;;4978570;28;20208;-64
2023/06/16 05:47:49;;;;;;;23.33;17.67;;;;;;;;;;4974915;28;20227;-64
2023/06/16 05:50:17;;;;;;;23.63;17.43;;;;;;;;;;4975656;28;20195;-64
2023/06/16 05:52:45;;;;;;;23.20;17.33;;;;;;;;;;4982775;28;20200;-64
2023/06/16 05:55:12;;;;;;;21.13;15.20;;;;;;;;;;4974183;28;20201;-64
2023/06/16 05:57:45;;;;;;;18.00;14.60;;;;;;;;;;4974736;28;20201;-64
2023/06/16 06:00:12;;;;;;;22.40;16.23;;;;;;;;;;4974371;28;20204;-64
2023/06/16 06:02:39;;;;;;;21.73;16.40;;;;;;;;;;4992155;28;20288;-64
2023/06/16 06:05:16;;;;;;;20.40;16.33;;;;;;;;;;4974485;28;20296;-64
2023/06/16 06:07:43;;;;;;;20.77;16.00;;;;;;;;;;4974369;28;20301;-65
2023/06/16 06:10:11;;;;;;;19.63;15.80;;;;;;;;;;4993457;28;20937;-64
2023/06/16 06:12:39;;;;;;;18.50;15.03;;;;;;;;;;4993278;28;20189;-64
2023/06/16 06:15:06;;;;;;;20.63;15.90;;;;;;;;;;5010750;28;20184;-64
2023/06/16 06:17:33;;;;;;;20.73;14.57;;;;;;;;;;5011488;28;20580;-64
2023/06/16 06:20:01;;;;;;;21.57;15.60;;;;;;;;;;4993511;28;20192;-64
2023/06/16 06:22:32;;;;;;;19.13;14.63;;;;;;;;;;4993237;28;20206;-64
2023/06/16 06:25:02;;;;;;;18.90;14.13;;;;;;;;;;4993542;28;20199;-64
2023/06/16 06:27:29;;;;;;;17.33;13.57;;;;;;;;;;4992820;28;20203;-64
2023/06/16 06:29:56;;;;;;;18.27;14.10;;;;;;;;;;4977744;28;20196;-64
2023/06/16 06:32:22;;;;;;;18.70;12.80;;;;;;;;;;5011178;28;20555;-64
2023/06/16 06:34:50;;;;;;;19.47;13.40;;;;;;;;;;5010765;28;20188;-64
2023/06/16 06:37:18;;;;;;;18.87;13.77;;;;;;;;;;4993461;28;20286;-64
2023/06/16 06:39:48;;;;;;;17.57;13.77;;;;;;;;;;4992939;28;20200;-65
2023/06/16 06:42:33;;;;;;;16.50;12.97;;;;;;;;;;4991898;28;20176;-67
2023/06/16 06:45:03;;;;;;;17.73;12.83;;;;;;;;;;4993099;28;20196;-63
2023/06/16 06:47:31;;;;;;;18.37;13.10;;;;;;;;;;4993380;28;20235;-63
2023/06/16 06:50:05;;;;;;;16.33;12.47;;;;;;;;;;4993055;28;20197;-64
2023/06/16 06:52:32;;;;;;;16.20;12.93;;;;;;;;;;5001650;28;20189;-63
2023/06/16 06:54:59;;;;;;;17.53;12.80;;;;;;;;;;4991097;28;20199;-64
2023/06/16 06:57:26;;;;;;;16.27;13.00;;;;;;;;;;4991286;28;20196;-64
2023/06/16 06:59:53;;;;;;;20.03;11.87;;;;;;;;;;4991158;28;20295;-64
2023/06/16 07:02:21;;;;;;;18.00;12.33;;;;;;;;;;5007172;28;20188;-63
2023/06/16 07:04:49;;;;;;;12.90;11.43;;;;;;;;;;5010202;28;20226;-64
2023/06/16 07:07:34;;;;;;;15.87;11.83;;;;;;;;;;5009935;28;20415;-64
2023/06/16 07:10:01;;;;;;;13.63;10.70;;;;;;;;;;5010281;28;20250;-64
2023/06/16 07:12:28;;;;;;;13.87;10.60;;;;;;;;;;5010275;28;20273;-64
2023/06/16 07:14:55;;;;;;;15.23;11.37;;;;;;;;;;5010248;28;20244;-64
2023/06/16 07:17:22;;;;;;;14.57;10.40;;;;;;;;;;5010097;28;20224;-64
2023/06/16 07:19:48;;;;;;;11.73;9.93;;;;;;;;;;5008989;28;20228;-65
2023/06/16 07:22:16;;;;;;;11.40;10.30;;;;;;;;;;5009831;28;20243;-65
2023/06/16 07:24:42;;;;;;;12.07;9.80;;;;;;;;;;5009818;28;20188;-64
2023/06/16 07:27:10;;;;;;;11.07;9.00;;;;;;;;;;5008722;28;20259;-64
2023/06/16 07:29:37;;;;;;;11.50;8.80;;;;;;;;;;5010218;28;20267;-64
2023/06/16 07:32:05;;;;;;;9.60;8.63;;;;;;;;;;5009797;28;20192;-64
2023/06/16 07:34:50;;;;;;;10.93;8.83;;;;;;;;;;5008733;28;20179;-64
2023/06/16 07:37:18;;;;;;;9.87;8.00;;;;;;;;;;5009762;28;20191;-65
2023/06/16 07:39:45;;;;;;;10.90;7.80;;;;;;;;;;5009538;28;20196;-65
2023/06/16 07:42:13;;;;;;;11.13;7.53;;;;;;;;;;5009426;28;20192;-65
2023/06/16 07:44:40;;;;;;;9.77;7.77;;;;;;;;;;4992546;28;20576;-64
2023/06/16 07:47:07;;;;;;;11.30;7.40;;;;;;;;;;5009445;28;20222;-65
2023/06/16 07:49:37;;;;;;;9.20;7.40;;;;;;;;;;5009633;28;20189;-65
2023/06/16 07:52:04;;;;;;;14.43;8.10;;;;;;;;;;4986384;28;20196;-64
2023/06/16 07:54:31;;;;;;;8.17;7.27;;;;;;;;;;4989579;28;20844;-64
2023/06/16 07:56:58;;;;;;;9.33;7.17;;;;;;;;;;4988715;28;20209;-65
2023/06/16 07:59:26;;;;;;;12.73;6.77;;;;;;;;;;4990105;28;20201;-64
2023/06/16 08:01:53;;;;;;;10.30;5.83;;;;;;;;;;4989433;28;20184;-64
2023/06/16 08:04:20;;;;;;;8.33;6.00;;;;;;;;;;4989901;28;20776;-65
2023/06/16 08:06:47;;;;;;;7.23;5.77;;;;;;;;;;4989122;28;20316;-65
2023/06/16 08:09:14;;;;;;;11.13;6.00;;;;;;;;;;4996674;28;20192;-65
2023/06/16 08:11:41;;;;;;;7.57;5.27;;;;;;;;;;5009308;28;20220;-64
2023/06/16 08:14:08;;;;;;;8.00;5.67;;;;;;;;;;5008946;28;20203;-65
2023/06/16 08:16:52;;;;;;;7.67;5.97;;;;;;;;;;5008531;28;20247;-65
2023/06/16 08:19:19;;;;;;;7.53;6.33;;;;;;;;;;5009090;28;20244;-65
2023/06/16 08:22:04;;;;;;;8.10;6.57;;;;;;;;;;5008661;28;20734;-65
2023/06/16 08:24:32;;;;;;;7.03;5.50;;;;;;;;;;5008677;28;20200;-65
2023/06/16 08:26:59;;;;;;;8.37;5.30;;;;;;;;;;5007671;28;20710;-65
2023/06/16 08:29:29;;;;;;;6.33;5.10;;;;;;;;;;5008957;28;21020;-65
2023/06/16 08:31:56;;;;;;;6.93;5.13;;;;;;;;;;5008709;28;20246;-65
2023/06/16 08:34:23;;;;;;;5.50;5.00;;;;;;;;;;5009034;28;20230;-64
2023/06/16 08:36:50;;;;;;;6.07;4.90;;;;;;;;;;5007903;28;20993;-65
2023/06/16 08:39:17;;;;;;;7.87;4.70;;;;;;;;;;5008731;28;20193;-65
2023/06/16 08:42:02;;;;;;;5.50;5.00;;;;;;;;;;5008789;28;20267;-63
2023/06/16 08:44:29;;;;;;;5.43;4.40;;;;;;;;;;4991106;28;20659;-65
2023/06/16 08:47:14;;;;;;;9.77;5.33;;;;;;;;;;4993960;28;20238;-65
2023/06/16 08:49:41;;;;;;;6.50;5.80;;;;;;;;;;4991248;28;20200;-65
2023/06/16 08:52:11;;;;;;;7.50;5.30;;;;;;;;;;4984949;28;20189;-65
2023/06/16 08:54:48;;;;;;;5.57;4.97;;;;;;;;;;4972144;28;20548;-65
2023/06/16 08:57:15;;;;;;;5.00;4.47;;;;;;;;;;4988923;28;20193;-65
2023/06/16 08:59:42;;;;;;;4.80;4.30;;;;;;;;;;5004717;28;20190;-65
2023/06/16 09:02:09;;;;;;;6.17;5.00;;;;;;;;;;5008338;28;20256;-65
2023/06/16 09:04:37;;;;;;;5.67;4.83;;;;;;;;;;5008607;28;20182;-65
2023/06/16 09:07:04;;;;;;;10.67;5.50;;;;;;;;;;5008411;28;20204;-64
2023/06/16 09:09:31;;;;;;;5.53;4.87;;;;;;;;;;5008559;28;20270;-65
2023/06/16 09:12:05;;;;;;;7.33;4.87;;;;;;;;;;5008643;28;20200;-64
2023/06/16 09:14:33;;;;;;;8.23;5.57;;;;;;;;;;5008588;28;20199;-66
2023/06/16 09:17:04;;;;;;;6.30;5.00;;;;;;;;;;5007432;28;20224;-64
2023/06/16 09:19:34;;;;;;;10.40;5.50;;;;;;;;;;5008085;28;20594;-65
2023/06/16 09:22:03;;;;;;;5.67;5.17;;;;;;;;;;5008411;28;20559;-64
2023/06/16 09:24:31;;;;;;;7.10;5.50;;;;;;;;;;4991032;28;20251;-64
2023/06/16 09:27:01;;;;;;;7.57;5.47;;;;;;;;;;5008158;28;20204;-65
2023/06/16 09:29:49;;;;;;;7.83;6.03;;;;;;;;;;5009075;28;20192;-64
2023/06/16 09:32:15;;;;;;;5.97;5.27;;;;;;;;;;5008366;28;20599;-64
2023/06/16 09:35:00;;;;;;;6.70;6.00;;;;;;;;;;5008366;28;20217;-64
2023/06/16 09:37:27;;;;;;;5.13;4.73;;;;;;;;;;4990533;28;20262;-64
2023/06/16 09:40:13;;;;;;;4.67;4.20;;;;;;;;;;5007967;28;20172;-65
2023/06/16 09:42:43;;;;;;;5.93;5.10;;;;;;;;;;4991197;28;20196;-64
2023/06/16 09:45:13;;;;;;;5.80;5.20;;;;;;;;;;5008449;28;20817;-65
2023/06/16 09:47:44;;;;;;;5.70;5.20;;;;;;;;;;5009254;28;20270;-64
2023/06/16 09:50:13;;;;;;;5.77;5.20;;;;;;;;;;5010855;28;20197;-65
2023/06/16 09:52:43;;;;;;;7.00;5.17;;;;;;;;;;5001419;28;20180;-64
2023/06/16 09:55:12;;;;;;;5.63;5.00;;;;;;;;;;4991932;28;20223;-65
2023/06/16 09:57:40;;;;;;;4.93;4.27;;;;;;;;;;4991961;28;20636;-65
2023/06/16 10:00:16;;;;;;;5.87;4.27;;;;;;;;;;4992056;28;20212;-65
2023/06/16 10:02:45;;;;;;;4.27;3.73;;;;;;;;;;4992209;28;20207;-65
2023/06/16 10:05:17;;;;;;;3.50;3.20;;;;;;;;;;4991705;28;20189;-65
2023/06/16 10:07:47;;;;;;;4.50;3.70;;;;;;;;;;5010811;28;20222;-65
2023/06/16 10:10:14;;;;;;;5.57;3.87;;;;;;;;;;5011391;28;20673;-65
2023/06/16 10:12:45;;;;;;;5.70;4.00;;;;;;;;;;5011246;28;20243;-65
2023/06/16 10:15:30;;;;;;;4.90;4.40;;;;;;;;;;5010903;28;20183;-65
2023/06/16 10:18:03;;;;;;;5.10;4.60;;;;;;;;;;5011222;28;20564;-64
2023/06/16 10:20:37;;;;;;;6.03;4.10;;;;;;;;;;5011393;28;20191;-65
2023/06/16 10:23:04;;;;;;;4.83;4.13;;;;;;;;;;4993423;28;20195;-65
2023/06/16 10:25:49;;;;;;;4.23;3.83;;;;;;;;;;5011118;28;20195;-65
2023/06/16 10:28:16;;;;;;;3.63;3.10;;;;;;;;;;5010800;28;20212;-65
2023/06/16 10:30:43;;;;;;;4.30;3.90;;;;;;;;;;5011071;28;20200;-64
2023/06/16 10:33:15;;;;;;;4.40;4.00;;;;;;;;;;4993486;28;20192;-65
2023/06/16 10:35:48;;;;;;;5.87;4.30;;;;;;;;;;5011228;28;20239;-64
2023/06/16 10:38:34;;;;;;;4.97;4.13;;;;;;;;;;5009989;28;20200;-65
2023/06/16 10:41:02;;;;;;;4.30;3.90;;;;;;;;;;5010784;28;20195;-64
2023/06/16 10:43:46;;;;;;;6.30;3.33;;;;;;;;;;5010576;28;20296;-65
2023/06/16 10:46:17;;;;;;;3.97;3.33;;;;;;;;;;5010472;28;20713;-65
2023/06/16 10:48:54;;;;;;;5.03;3.30;;;;;;;;;;5010388;28;20192;-65
2023/06/16 10:51:44;;;;;;;4.10;3.63;;;;;;;;;;5010367;28;20228;-66
2023/06/16 10:54:30;;;;;;;4.10;2.97;;;;;;;;;;4973529;28;20232;-65
2023/06/16 10:57:01;;;;;;;3.20;2.90;;;;;;;;;;5004956;28;20287;-64
2023/06/16 10:59:59;;;;;;;3.47;3.17;;;;;;;;;;4992554;28;20200;-65
2023/06/16 11:02:28;;;;;;;3.77;2.90;;;;;;;;;;5010329;28;20323;-65
2023/06/16 11:05:07;;;;;;;3.70;3.00;;;;;;;;;;5010138;28;20215;-65
2023/06/16 11:07:46;;;;;;;5.67;3.40;;;;;;;;;;5009825;28;20318;-65
2023/06/16 11:10:17;;;;;;;5.63;2.87;;;;;;;;;;5010139;28;20210;-65
2023/06/16 11:12:45;;;;;;;2.80;2.60;;;;;;;;;;5009424;28;20227;-65
2023/06/16 11:15:11;;;;;;;3.60;3.30;;;;;;;;;;5010247;28;20536;-65
2023/06/16 11:17:39;;;;;;;4.30;3.30;;;;;;;;;;5010061;28;20220;-65
2023/06/16 11:20:40;;;;;;;;;;;;;;;;;;;;;
2023/06/16 12:06:54;;;;;;;4.90;3.70;;;;;;;;;;4905388;29;20583;-65
2023/06/16 12:09:21;;;;;;;3.90;3.43;;;;;;;;;;4973343;28;20203;-64
2023/06/16 12:11:48;;;;;;;5.67;3.43;;;;;;;;;;4995991;28;20595;-65
2023/06/16 12:14:19;;;;;;;4.60;3.10;;;;;;;;;;4993299;28;20197;-66
2023/06/16 12:17:04;;;;;;;3.73;3.43;;;;;;;;;;4998530;28;20221;-64
2023/06/16 12:19:31;;;;;;;4.57;3.40;;;;;;;;;;4986721;28;20619;-65
2023/06/16 12:22:01;;;;;;;3.53;3.17;;;;;;;;;;5007524;28;20201;-64
2023/06/16 12:24:28;;;;;;;4.23;3.27;;;;;;;;;;5007190;28;20199;-65
2023/06/16 12:26:56;;;;;;;4.60;3.40;;;;;;;;;;5001760;28;20212;-64
2023/06/16 12:29:41;;;;;;;3.50;3.13;;;;;;;;;;4993653;28;20185;-64
2023/06/16 12:32:08;;;;;;;4.77;3.77;;;;;;;;;;5000074;28;20664;-64
2023/06/16 12:34:35;;;;;;;4.53;4.10;;;;;;;;;;5001083;28;20188;-65
2023/06/16 12:37:03;;;;;;;4.93;3.60;;;;;;;;;;4990443;28;20250;-64
2023/06/16 12:39:30;;;;;;;3.70;3.37;;;;;;;;;;5001697;28;20197;-65
2023/06/16 12:41:58;;;;;;;3.93;3.33;;;;;;;;;;4988707;28;20219;-64
2023/06/16 12:44:39;;;;;;;3.60;3.30;;;;;;;;;;4998243;28;20242;-64
2023/06/16 12:47:06;;;;;;;4.13;3.23;;;;;;;;;;4970225;28;20236;-65
2023/06/16 12:49:33;;;;;;;4.63;3.30;;;;;;;;;;4984267;28;20231;-64
2023/06/16 12:52:01;;;;;;;3.47;3.13;;;;;;;;;;4992339;28;20196;-64
2023/06/16 12:54:29;;;;;;;4.00;3.30;;;;;;;;;;4989200;28;20196;-64
2023/06/16 12:56:56;;;;;;;3.50;3.20;;;;;;;;;;4988621;28;20251;-64
2023/06/16 12:59:23;;;;;;;8.13;3.47;;;;;;;;;;4994779;28;20196;-65
2023/06/16 13:01:50;;;;;;;5.40;3.40;;;;;;;;;;4994440;28;20212;-64
2023/06/16 13:04:17;;;;;;;4.00;3.40;;;;;;;;;;5001786;28;20533;-65
2023/06/16 13:06:44;;;;;;;5.40;3.40;;;;;;;;;;4998793;28;20202;-64
2023/06/16 13:09:28;;;;;;;3.30;3.00;;;;;;;;;;5007585;28;20267;-65
2023/06/16 13:11:55;;;;;;;4.10;3.27;;;;;;;;;;5007514;28;20725;-65
2023/06/16 13:14:40;;;;;;;4.67;3.00;;;;;;;;;;4994298;28;20866;-64
2023/06/16 13:17:07;;;;;;;4.70;3.87;;;;;;;;;;5007009;28;20304;-65
2023/06/16 13:19:51;;;;;;;3.67;3.00;;;;;;;;;;5008114;28;20520;-64
2023/06/16 13:22:18;;;;;;;4.17;3.10;;;;;;;;;;5008799;28;20279;-63
2023/06/16 13:24:45;;;;;;;3.70;3.37;;;;;;;;;;5012169;28;20188;-65
2023/06/16 13:27:12;;;;;;;3.40;3.10;;;;;;;;;;5012037;28;20204;-64
2023/06/16 13:29:39;;;;;;;4.07;3.40;;;;;;;;;;5002752;28;20189;-64
2023/06/16 13:32:24;;;;;;;3.30;3.00;;;;;;;;;;5005885;28;20229;-64
2023/06/16 13:34:51;;;;;;;4.27;3.20;;;;;;;;;;4988007;28;20215;-65
2023/06/16 13:37:18;;;;;;;4.93;3.60;;;;;;;;;;5005863;28;20188;-65
2023/06/16 13:39:45;;;;;;;4.17;3.10;;;;;;;;;;5003215;28;20199;-65
2023/06/16 13:42:12;;;;;;;3.03;2.77;;;;;;;;;;5005396;28;20216;-65
2023/06/16 13:44:56;;;;;;;3.40;3.10;;;;;;;;;;5005042;28;20190;-66
2023/06/16 13:47:23;;;;;;;4.90;3.10;;;;;;;;;;4998352;28;20399;-65
2023/06/16 13:49:50;;;;;;;3.37;3.07;;;;;;;;;;4999493;28;20845;-65
2023/06/16 13:52:18;;;;;;;2.70;2.50;;;;;;;;;;5009083;28;20193;-64
2023/06/16 13:54:45;;;;;;;3.60;2.60;;;;;;;;;;4995974;28;20188;-65
2023/06/16 13:57:12;;;;;;;3.90;2.93;;;;;;;;;;5004524;28;20200;-65
2023/06/16 13:59:38;;;;;;;3.30;3.00;;;;;;;;;;5007671;28;20208;-64
2023/06/16 14:02:05;;;;;;;3.27;2.97;;;;;;;;;;4993314;28;20627;-65
2023/06/16 14:04:35;;;;;;;2.83;2.50;;;;;;;;;;4993371;28;20283;-65
2023/06/16 14:07:01;;;;;;;3.00;2.70;;;;;;;;;;4996634;28;20567;-65
2023/06/16 14:09:29;;;;;;;3.63;2.90;;;;;;;;;;5000351;28;20192;-65
2023/06/16 14:11:56;;;;;;;3.87;2.93;;;;;;;;;;4991935;28;20185;-65
2023/06/16 14:14:23;;;;;;;3.57;2.67;;;;;;;;;;4993056;28;20639;-62
2023/06/16 14:16:50;;;;;;;3.07;2.87;;;;;;;;;;4993208;28;20533;-62
2023/06/16 14:19:34;;;;;;;6.57;5.73;;;;;;;;;;4993536;28;20559;-62
2023/06/16 14:22:02;;;;;;;9.03;7.17;;;;;;;;;;4993029;28;20193;-62
2023/06/16 14:24:29;;;;;;;8.10;6.43;;;;;;;;;;5001446;28;20782;-62
2023/06/16 14:26:56;;;;;;;7.70;6.50;;;;;;;;;;4996617;28;20291;-63
2023/06/16 14:29:23;;;;;;;8.10;7.17;;;;;;;;;;4993064;28;20193;-62
2023/06/16 14:31:50;;;;;;;7.77;6.80;;;;;;;;;;4993480;28;20223;-62
2023/06/16 14:34:17;;;;;;;8.40;7.13;;;;;;;;;;4992462;28;20187;-61
2023/06/16 14:36:44;;;;;;;8.20;7.23;;;;;;;;;;4976550;28;20195;-62
2023/06/16 14:39:15;;;;;;;10.17;7.20;;;;;;;;;;4992432;28;20267;-62
2023/06/16 14:41:44;;;;;;;7.33;6.63;;;;;;;;;;4999445;28;20316;-62
2023/06/16 14:44:12;;;;;;;8.57;6.47;;;;;;;;;;5009524;28;20209;-62
2023/06/16 14:46:41;;;;;;;8.40;6.50;;;;;;;;;;5007008;28;20623;-61
2023/06/16 14:49:09;;;;;;;8.83;5.20;;;;;;;;;;4992996;28;20623;-62
2023/06/16 14:51:53;;;;;;;6.53;5.70;;;;;;;;;;4993327;28;20520;-63
2023/06/16 14:54:19;;;;;;;6.87;6.00;;;;;;;;;;4992519;28;20226;-62
2023/06/16 14:57:04;;;;;;;7.80;6.20;;;;;;;;;;4994483;28;20184;-62
2023/06/16 14:59:31;;;;;;;7.37;6.30;;;;;;;;;;4992055;28;20284;-61
2023/06/16 15:01:58;;;;;;;7.20;6.23;;;;;;;;;;4992098;28;20759;-61
2023/06/16 15:04:26;;;;;;;7.73;6.63;;;;;;;;;;4992177;28;20787;-62
2023/06/16 15:06:54;;;;;;;7.50;6.60;;;;;;;;;;4992196;28;20252;-62
2023/06/16 15:09:25;;;;;;;7.97;7.17;;;;;;;;;;4992739;28;20213;-61
2023/06/16 15:11:51;;;;;;;8.53;7.13;;;;;;;;;;4991859;28;20227;-62
2023/06/16 15:14:18;;;;;;;7.70;6.77;;;;;;;;;;4998027;28;20195;-61
2023/06/16 15:16:45;;;;;;;8.20;7.40;;;;;;;;;;4998328;28;20762;-62
2023/06/16 15:19:12;;;;;;;8.43;7.63;;;;;;;;;;5005857;28;20740;-62
2023/06/16 15:21:39;;;;;;;8.67;7.73;;;;;;;;;;4992358;28;20201;-61
2023/06/16 15:24:24;;;;;;;9.87;7.73;;;;;;;;;;4992457;28;20185;-61
2023/06/16 15:26:51;;;;;;;8.80;8.00;;;;;;;;;;4992207;28;20197;-62
2023/06/16 15:29:19;;;;;;;9.23;7.70;;;;;;;;;;4991534;28;20244;-62
2023/06/16 15:31:49;;;;;;;8.50;7.63;;;;;;;;;;4999508;28;20342;-62
2023/06/16 15:34:16;;;;;;;8.37;7.50;;;;;;;;;;4992071;28;20250;-62
2023/06/16 15:36:43;;;;;;;8.23;7.37;;;;;;;;;;4999867;28;20189;-61
2023/06/16 15:39:09;;;;;;;10.43;7.77;;;;;;;;;;4991660;28;20189;-62
2023/06/16 15:41:36;;;;;;;8.40;7.53;;;;;;;;;;4992203;28;20552;-62
2023/06/16 15:44:03;;;;;;;7.83;7.13;;;;;;;;;;5011364;28;20721;-62
2023/06/16 15:46:30;;;;;;;8.17;6.93;;;;;;;;;;4992430;28;20679;-62
2023/06/16 15:48:57;;;;;;;8.77;7.97;;;;;;;;;;4993366;28;20224;-62
2023/06/16 15:51:24;;;;;;;9.40;7.33;;;;;;;;;;4994156;28;20671;-62
2023/06/16 15:53:51;;;;;;;8.30;7.07;;;;;;;;;;4991239;28;20255;-62
2023/06/16 15:56:17;;;;;;;8.30;7.50;;;;;;;;;;4991408;28;20189;-62
2023/06/16 15:58:44;;;;;;;8.73;7.23;;;;;;;;;;4990895;28;20202;-63
2023/06/16 16:01:11;;;;;;;10.03;7.47;;;;;;;;;;4989625;28;20249;-62
2023/06/16 16:03:38;;;;;;;8.30;7.50;;;;;;;;;;4989858;28;20872;-62
2023/06/16 16:06:22;;;;;;;8.03;7.07;;;;;;;;;;4989554;28;20177;-63
2023/06/16 16:08:49;;;;;;;8.87;7.53;;;;;;;;;;4989700;28;20233;-63